createdAt,value
2022-08-17T00:01:16.850Z,5.28
2022-08-17T00:03:47.590Z,5.72
2022-08-17T00:06:16.869Z,5.63
2022-08-17T00:08:45.878Z,5.80
2022-08-17T00:11:15.230Z,6.20
2022-08-17T00:13:45.890Z,6.07
2022-08-17T00:16:15.570Z,5.90
2022-08-17T00:19:06.015Z,6.07
2022-08-17T00:22:10.617Z,6.10
2022-08-17T00:24:19.383Z,5.40
2022-08-17T00:26:46.322Z,5.65
2022-08-17T00:29:16.477Z,6.13
2022-08-17T00:31:46.784Z,5.93
2022-08-17T00:34:13.354Z,5.80
2022-08-17T00:36:41.273Z,6.17
2022-08-17T00:39:07.863Z,5.78
2022-08-17T00:41:34.710Z,5.68
2022-08-17T00:44:04.118Z,5.57
2022-08-17T00:46:32.756Z,5.90
2022-08-17T00:49:00.161Z,6.20
2022-08-17T00:51:33.219Z,6.47
2022-08-17T00:54:10.789Z,6.00
2022-08-17T00:56:41.671Z,5.93
2022-08-17T00:59:10.199Z,6.03
2022-08-17T01:01:37.905Z,5.40
2022-08-17T01:04:05.591Z,5.87
2022-08-17T01:06:32.924Z,5.73
2022-08-17T01:09:02.350Z,5.50
2022-08-17T01:11:31.092Z,5.78
2022-08-17T01:13:57.632Z,5.80
2022-08-17T01:16:26.636Z,5.60
2022-08-17T01:18:58.150Z,6.32
2022-08-17T01:21:35.718Z,6.43
2022-08-17T01:24:04.647Z,5.90
2022-08-17T01:26:32.482Z,5.82
2022-08-17T01:29:00.512Z,5.20
2022-08-17T01:31:30.854Z,5.88
2022-08-17T01:33:59.839Z,5.60
2022-08-17T01:36:28.463Z,5.93
2022-08-17T01:38:55.039Z,5.20
2022-08-17T01:41:24.279Z,6.07
2022-08-17T01:43:54.627Z,5.85
2022-08-17T01:46:24.573Z,5.90
2022-08-17T01:48:51.293Z,5.67
2022-08-17T01:51:18.261Z,5.80
2022-08-17T01:53:48.733Z,6.15
2022-08-17T01:56:18.132Z,6.03
2022-08-17T01:58:46.946Z,5.60
2022-08-17T02:01:14.546Z,5.95
2022-08-17T02:03:41.270Z,5.77
2022-08-17T02:06:27.159Z,5.93
2022-08-17T02:09:02.257Z,6.05
2022-08-17T02:11:30.932Z,5.97
2022-08-17T02:14:01.094Z,5.47
2022-08-17T02:16:36.954Z,6.05
2022-08-17T02:19:06.297Z,5.43
2022-08-17T02:21:32.910Z,5.93
2022-08-17T02:23:59.536Z,5.60
2022-08-17T02:26:26.763Z,5.90
2022-08-17T02:28:53.429Z,6.05
2022-08-17T02:31:21.433Z,5.70
2022-08-17T02:34:00.233Z,6.07
2022-08-17T02:36:33.019Z,6.13
2022-08-17T02:39:00.071Z,5.90
2022-08-17T02:41:26.606Z,5.70
2022-08-17T02:43:53.189Z,5.43
2022-08-17T02:46:21.116Z,5.80
2022-08-17T02:48:47.728Z,5.90
2022-08-17T02:51:14.294Z,5.90
2022-08-17T02:53:40.989Z,6.05
2022-08-17T02:56:07.641Z,5.78
2022-08-17T02:58:36.082Z,5.70
2022-08-17T03:01:04.277Z,5.60
2022-08-17T03:03:32.269Z,6.23
2022-08-17T03:05:58.885Z,5.80
2022-08-17T03:08:25.674Z,5.50
2022-08-17T03:10:52.551Z,5.70
2022-08-17T03:13:19.283Z,5.75
2022-08-17T03:15:47.061Z,5.85
2022-08-17T03:18:24.918Z,5.95
2022-08-17T03:20:54.039Z,6.33
2022-08-17T03:23:23.686Z,6.03
2022-08-17T03:25:53.147Z,6.00
2022-08-17T03:28:20.930Z,6.40
2022-08-17T03:30:47.693Z,6.20
2022-08-17T03:33:14.422Z,6.22
2022-08-17T03:35:41.102Z,6.10
2022-08-17T03:38:11.083Z,6.27
2022-08-17T03:40:56.569Z,5.95
2022-08-17T03:43:26.440Z,5.97
2022-08-17T03:45:52.950Z,5.85
2022-08-17T03:48:20.159Z,5.97
2022-08-17T03:50:46.719Z,6.13
2022-08-17T03:53:17.201Z,6.20
2022-08-17T03:55:43.788Z,6.07
2022-08-17T03:58:10.369Z,6.75
2022-08-17T04:00:39.706Z,6.30
2022-08-17T04:03:06.467Z,6.82
2022-08-17T04:05:35.611Z,6.47
2022-08-17T04:08:02.432Z,6.40
2022-08-17T04:10:34.676Z,6.50
2022-08-17T04:13:11.420Z,6.22
2022-08-17T04:15:37.990Z,6.45
2022-08-17T04:18:04.571Z,6.30
2022-08-17T04:20:31.247Z,6.80
2022-08-17T04:22:59.584Z,6.80
2022-08-17T04:25:26.340Z,6.43
2022-08-17T04:27:54.738Z,5.90
2022-08-17T04:30:21.654Z,6.05
2022-08-17T04:33:04.768Z,7.07
2022-08-17T04:35:36.263Z,6.97
2022-08-17T04:38:02.920Z,6.80
2022-08-17T04:40:29.522Z,6.47
2022-08-17T04:43:02.730Z,7.00
2022-08-17T04:45:32.188Z,7.00
2022-08-17T04:47:59.448Z,6.50
2022-08-17T04:50:26.185Z,6.60
2022-08-17T04:52:52.722Z,6.67
2022-08-17T04:55:19.331Z,6.82
2022-08-17T04:57:45.915Z,6.70
2022-08-17T05:00:14.611Z,6.63
2022-08-17T05:02:50.096Z,6.43
2022-08-17T05:05:18.622Z,5.70
2022-08-17T05:07:45.184Z,6.60
2022-08-17T05:10:11.843Z,6.55
2022-08-17T05:12:38.363Z,6.05
2022-08-17T05:15:10.395Z,6.03
2022-08-17T05:17:38.300Z,5.77
2022-08-17T05:20:05.575Z,5.70
2022-08-17T05:22:32.115Z,6.50
2022-08-17T05:24:58.651Z,5.75
2022-08-17T05:27:32.903Z,5.75
2022-08-17T05:30:02.130Z,5.85
2022-08-17T05:32:39.285Z,5.87
2022-08-17T05:35:08.911Z,6.27
2022-08-17T05:37:35.465Z,6.00
2022-08-17T05:40:02.098Z,5.50
2022-08-17T05:42:28.709Z,5.68
2022-08-17T05:44:57.366Z,5.95
2022-08-17T05:47:26.153Z,6.00
2022-08-17T05:49:53.747Z,5.80
2022-08-17T05:52:32.984Z,6.50
2022-08-17T05:55:13.687Z,7.03
2022-08-17T05:57:53.413Z,7.45
2022-08-17T06:00:26.441Z,7.68
2022-08-17T06:03:44.894Z,7.50
2022-08-17T06:06:25.284Z,7.30
2022-08-17T06:09:15.220Z,8.00
2022-08-17T06:11:47.623Z,7.93
2022-08-17T06:14:38.217Z,7.57
2022-08-17T06:17:10.856Z,7.97
2022-08-17T06:19:42.647Z,7.70
2022-08-17T06:22:13.028Z,7.20
2022-08-17T06:24:45.516Z,7.05
2022-08-17T06:27:21.725Z,7.60
2022-08-17T06:29:53.680Z,8.07
2022-08-17T06:32:20.587Z,8.67
2022-08-17T06:34:47.842Z,8.33
2022-08-17T06:37:37.574Z,7.80
2022-08-17T06:40:23.880Z,8.35
2022-08-17T06:43:05.889Z,7.43
2022-08-17T06:45:38.603Z,8.40
2022-08-17T06:48:12.766Z,8.17
2022-08-17T06:50:44.085Z,7.90
2022-08-17T06:53:19.621Z,8.90
2022-08-17T06:55:55.867Z,8.93
2022-08-17T06:58:24.247Z,8.85
2022-08-17T07:00:58.813Z,8.98
2022-08-17T07:03:33.655Z,7.93
2022-08-17T07:06:06.486Z,7.93
2022-08-17T07:08:44.540Z,8.00
2022-08-17T07:11:16.413Z,8.63
2022-08-17T07:13:51.589Z,8.15
2022-08-17T07:16:23.994Z,8.00
2022-08-17T07:18:52.765Z,7.77
2022-08-17T07:21:34.210Z,7.35
2022-08-17T07:24:29.176Z,7.82
2022-08-17T07:27:16.119Z,8.13
2022-08-17T07:29:48.421Z,8.57
2022-08-17T07:32:17.526Z,7.97
2022-08-17T07:35:10.862Z,8.60
2022-08-17T07:37:39.890Z,8.73
2022-08-17T07:40:20.181Z,8.32
2022-08-17T07:43:23.009Z,8.25
2022-08-17T07:46:02.470Z,8.57
2022-08-17T07:48:29.169Z,9.20
2022-08-17T07:50:55.742Z,8.65
2022-08-17T07:53:24.872Z,9.40
2022-08-17T07:55:52.768Z,8.27
2022-08-17T07:58:22.544Z,8.80
2022-08-17T08:01:04.610Z,9.18
2022-08-17T08:03:33.099Z,8.60
2022-08-17T08:06:01.998Z,7.97
2022-08-17T08:08:33.431Z,8.73
2022-08-17T08:11:07.882Z,9.13
2022-08-17T08:13:37.260Z,8.05
2022-08-17T08:16:20.706Z,9.18
2022-08-17T08:18:54.772Z,8.63
2022-08-17T08:21:31.724Z,8.90
2022-08-17T08:24:10.038Z,8.33
2022-08-17T08:26:43.621Z,8.20
2022-08-17T08:29:20.586Z,7.78
2022-08-17T08:31:56.808Z,7.72
2022-08-17T08:34:58.623Z,8.00
2022-08-17T08:37:34.511Z,7.50
2022-08-17T08:40:19.482Z,7.47
2022-08-17T08:42:57.390Z,7.95
2022-08-17T08:45:32.038Z,7.70
2022-08-17T08:48:57.033Z,7.60
2022-08-17T08:51:03.891Z,6.77
2022-08-17T08:53:40.983Z,6.50
2022-08-17T08:56:16.316Z,7.07
2022-08-17T08:58:51.183Z,6.38
2022-08-17T09:01:27.672Z,6.75
2022-08-17T09:04:25.933Z,7.35
2022-08-17T09:07:02.292Z,6.17
2022-08-17T09:09:42.593Z,6.32
2022-08-17T09:12:17.397Z,6.22
2022-08-17T09:14:54.135Z,6.18
2022-08-17T09:17:31.198Z,6.50
2022-08-17T09:20:02.206Z,5.93
2022-08-17T09:22:34.135Z,5.78
2022-08-17T09:25:08.937Z,5.80
2022-08-17T09:27:49.222Z,5.93
2022-08-17T09:30:16.220Z,5.95
2022-08-17T09:32:46.185Z,5.60
2022-08-17T09:35:17.402Z,5.72
2022-08-17T09:37:58.468Z,6.40
2022-08-17T09:40:30.879Z,5.40
2022-08-17T09:43:04.191Z,5.40
2022-08-17T09:45:35.700Z,5.90
2022-08-17T09:48:08.199Z,5.45
2022-08-17T09:50:55.238Z,5.57
2022-08-17T09:53:31.790Z,5.10
2022-08-17T09:56:22.015Z,5.05
2022-08-17T09:59:08.475Z,4.83
2022-08-17T10:01:39.414Z,4.28
2022-08-17T10:04:29.366Z,5.28
2022-08-17T10:07:03.502Z,5.00
2022-08-17T10:09:48.454Z,4.85
2022-08-17T10:12:29.952Z,5.00
2022-08-17T10:15:11.777Z,4.95
2022-08-17T10:17:46.182Z,4.78
2022-08-17T10:20:18.960Z,4.72
2022-08-17T10:22:54.856Z,4.60
2022-08-17T10:25:27.781Z,4.50
2022-08-17T10:28:06.536Z,5.07
2022-08-17T10:30:37.883Z,4.78
2022-08-17T10:33:12.624Z,5.15
2022-08-17T10:35:47.573Z,4.60
2022-08-17T10:38:38.847Z,4.60
2022-08-17T10:41:19.838Z,4.25
2022-08-17T10:44:36.976Z,4.63
2022-08-17T10:47:02.945Z,4.65
2022-08-17T10:49:32.067Z,4.35
2022-08-17T10:52:01.904Z,4.70
2022-08-17T10:54:40.683Z,4.45
2022-08-17T10:57:39.056Z,4.40
2022-08-17T11:00:10.497Z,4.90
2022-08-17T11:02:43.955Z,4.75
2022-08-17T11:05:23.312Z,4.30
2022-08-17T11:08:06.960Z,4.38
2022-08-17T11:10:52.270Z,4.20
2022-08-17T11:13:31.998Z,4.30
2022-08-17T11:16:15.026Z,4.30
2022-08-17T11:19:07.091Z,4.20
2022-08-17T11:22:01.585Z,4.38
2022-08-17T11:24:34.192Z,4.43
2022-08-17T11:27:07.943Z,4.50
2022-08-17T11:29:52.932Z,4.47
2022-08-17T11:32:36.743Z,4.60
2022-08-17T11:35:25.099Z,5.00
2022-08-17T11:38:06.950Z,4.75
2022-08-17T11:40:46.123Z,4.78
2022-08-17T11:43:30.864Z,4.90
2022-08-17T11:46:07.455Z,4.43
2022-08-17T11:48:43.079Z,4.25
2022-08-17T11:51:13.343Z,4.93
2022-08-17T11:54:31.131Z,4.55
2022-08-17T11:56:51.362Z,4.38
2022-08-17T12:00:07.003Z,4.70
2022-08-17T12:02:42.373Z,5.10
2022-08-17T12:05:36.008Z,4.40
2022-08-17T12:08:18.759Z,4.55
2022-08-17T12:10:58.178Z,4.55
2022-08-17T12:13:27.403Z,4.73
2022-08-17T12:16:01.517Z,4.78
2022-08-17T12:18:31.723Z,4.50
2022-08-17T12:21:19.335Z,4.63
2022-08-17T12:23:55.415Z,4.55
2022-08-17T12:26:25.646Z,4.60
2022-08-17T12:28:58.801Z,5.15
2022-08-17T12:31:28.676Z,4.80
2022-08-17T12:33:56.126Z,4.43
2022-08-17T12:36:25.326Z,4.40
2022-08-17T12:38:55.868Z,5.00
2022-08-17T12:41:34.560Z,4.68
2022-08-17T12:44:05.266Z,4.88
2022-08-17T12:46:34.378Z,4.97
2022-08-17T12:49:12.949Z,4.70
2022-08-17T12:51:43.444Z,4.50
2022-08-17T12:54:24.004Z,4.72
2022-08-17T12:56:50.634Z,4.43
2022-08-17T12:59:29.857Z,4.80
2022-08-17T13:01:57.628Z,5.03
2022-08-17T13:04:24.695Z,4.70
2022-08-17T13:07:00.146Z,4.57
2022-08-17T13:09:35.316Z,4.47
2022-08-17T13:12:07.678Z,4.60
2022-08-17T13:14:35.913Z,4.65
2022-08-17T13:17:03.338Z,4.57
2022-08-17T13:19:40.963Z,4.30
2022-08-17T13:22:12.202Z,4.78
2022-08-17T13:24:49.421Z,4.40
2022-08-17T13:27:20.997Z,4.50
2022-08-17T13:29:53.292Z,4.63
2022-08-17T13:32:22.392Z,4.55
2022-08-17T13:35:14.255Z,4.63
2022-08-17T13:37:37.948Z,4.35
2022-08-17T13:40:29.925Z,4.20
2022-08-17T13:42:57.831Z,4.63
2022-08-17T13:45:56.500Z,4.80
2022-08-17T13:48:26.451Z,4.15
2022-08-17T13:51:22.145Z,4.70
2022-08-17T13:53:56.535Z,4.60
2022-08-17T13:56:38.556Z,4.50
2022-08-17T13:59:08.710Z,4.82
2022-08-17T14:01:39.566Z,4.47
2022-08-17T14:04:08.249Z,4.38
2022-08-17T14:06:51.911Z,4.75
2022-08-17T14:09:25.337Z,4.60
2022-08-17T14:11:53.795Z,4.57
2022-08-17T14:14:21.208Z,4.80
2022-08-17T14:16:49.206Z,4.57
2022-08-17T14:19:15.783Z,4.95
2022-08-17T14:21:44.396Z,4.87
2022-08-17T14:24:18.275Z,4.95
2022-08-17T14:26:44.868Z,4.65
2022-08-17T14:29:14.977Z,5.07
2022-08-17T14:31:42.376Z,4.75
2022-08-17T14:34:16.403Z,4.40
2022-08-17T14:36:48.211Z,4.78
2022-08-17T14:39:16.648Z,4.57
2022-08-17T14:41:43.887Z,4.65
2022-08-17T14:44:11.057Z,4.97
2022-08-17T14:46:38.013Z,4.50
2022-08-17T14:49:04.593Z,4.78
2022-08-17T14:51:32.693Z,5.00
2022-08-17T14:53:59.310Z,4.95
2022-08-17T14:56:26.184Z,4.85
2022-08-17T14:58:52.852Z,4.83
2022-08-17T15:01:20.904Z,4.82
2022-08-17T15:03:47.552Z,4.80
2022-08-17T15:06:14.324Z,4.50
2022-08-17T15:08:44.335Z,4.50
2022-08-17T15:11:14.418Z,4.83
2022-08-17T15:13:53.007Z,4.10
2022-08-17T15:16:20.149Z,4.50
2022-08-17T15:18:46.753Z,4.38
2022-08-17T15:21:13.311Z,4.50
2022-08-17T15:23:39.897Z,4.60
2022-08-17T15:26:10.715Z,4.22
2022-08-17T15:28:37.325Z,4.63
2022-08-17T15:31:04.099Z,4.47
2022-08-17T15:33:30.693Z,4.70
2022-08-17T15:35:59.786Z,4.50
2022-08-17T15:38:26.777Z,5.32
2022-08-17T15:40:54.188Z,4.43
2022-08-17T15:43:27.597Z,5.00
2022-08-17T15:45:59.820Z,4.97
2022-08-17T15:48:27.629Z,4.33
2022-08-17T15:50:54.175Z,4.63
2022-08-17T15:53:20.757Z,4.55
2022-08-17T15:55:47.314Z,4.45
2022-08-17T15:58:13.825Z,5.03
2022-08-17T16:00:49.061Z,4.70
2022-08-17T16:04:01.451Z,4.80
2022-08-17T16:06:07.487Z,4.70
2022-08-17T16:08:37.464Z,4.75
2022-08-17T16:11:04.558Z,4.85
2022-08-17T16:13:31.617Z,5.37
2022-08-17T16:15:59.634Z,5.32
2022-08-17T16:18:27.978Z,5.40
2022-08-17T16:20:54.606Z,5.20
2022-08-17T16:23:21.159Z,6.20
2022-08-17T16:25:53.684Z,5.00
2022-08-17T16:28:21.478Z,4.95
2022-08-17T16:30:48.082Z,5.80
2022-08-17T16:33:16.020Z,5.28
2022-08-17T16:35:42.617Z,5.00
2022-08-17T16:38:09.264Z,5.37
2022-08-17T16:40:36.422Z,5.53
2022-08-17T16:43:04.634Z,5.03
2022-08-17T16:45:31.597Z,4.70
2022-08-17T16:47:58.726Z,5.40
2022-08-17T16:50:26.664Z,5.53
2022-08-17T16:53:02.931Z,4.95
2022-08-17T16:55:29.507Z,5.13
2022-08-17T16:57:56.092Z,5.20
2022-08-17T17:00:22.867Z,5.43
2022-08-17T17:02:49.604Z,5.57
2022-08-17T17:05:36.347Z,5.15
2022-08-17T17:08:07.963Z,4.93
2022-08-17T17:10:39.233Z,4.43
2022-08-17T17:13:12.027Z,4.47
2022-08-17T17:15:46.620Z,4.30
2022-08-17T17:18:13.972Z,4.07
2022-08-17T17:20:47.586Z,4.55
2022-08-17T17:23:26.502Z,4.25
2022-08-17T17:26:02.924Z,3.60
2022-08-17T17:28:37.502Z,3.90
2022-08-17T17:31:10.430Z,4.65
2022-08-17T17:33:42.513Z,4.40
2022-08-17T17:36:22.203Z,4.60
2022-08-17T17:38:52.712Z,4.47
2022-08-17T17:41:26.504Z,4.37
2022-08-17T17:44:01.682Z,4.10
2022-08-17T17:46:32.627Z,4.57
2022-08-17T17:48:59.944Z,4.10
2022-08-17T17:52:09.111Z,4.40
2022-08-17T17:54:36.609Z,4.47
2022-08-17T17:57:11.100Z,4.57
2022-08-17T17:59:48.072Z,4.43
2022-08-17T18:02:31.771Z,4.20
2022-08-17T18:05:08.552Z,4.30
2022-08-17T18:07:42.714Z,4.37
2022-08-17T18:10:29.619Z,4.32
2022-08-17T18:13:04.606Z,4.13
2022-08-17T18:15:36.772Z,4.47
2022-08-17T18:18:39.152Z,4.57
2022-08-17T18:21:10.080Z,4.40
2022-08-17T18:23:46.539Z,4.55
2022-08-17T18:26:13.153Z,4.65
2022-08-17T18:28:41.774Z,4.18
2022-08-17T18:31:12.568Z,4.35
2022-08-17T18:33:41.926Z,4.33
2022-08-17T18:36:08.778Z,4.45
2022-08-17T18:38:37.421Z,4.20
2022-08-17T18:41:17.817Z,4.15
2022-08-17T18:43:53.170Z,4.47
2022-08-17T18:46:29.196Z,4.33
2022-08-17T18:48:59.275Z,4.70
2022-08-17T18:51:40.451Z,4.53
2022-08-17T18:54:20.991Z,4.57
2022-08-17T18:56:54.476Z,4.45
2022-08-17T18:59:32.885Z,4.70
2022-08-17T19:02:11.637Z,4.88
2022-08-17T19:04:43.059Z,4.30
2022-08-17T19:07:29.973Z,4.57
2022-08-17T19:10:13.923Z,4.40
2022-08-17T19:12:46.782Z,4.77
2022-08-17T19:15:15.971Z,4.93
2022-08-17T19:17:48.046Z,4.70
2022-08-17T19:20:19.272Z,4.25
2022-08-17T19:22:56.318Z,4.80
2022-08-17T19:25:27.342Z,4.30
2022-08-17T19:28:01.602Z,4.50
2022-08-17T19:30:30.035Z,4.72
2022-08-17T19:32:56.851Z,4.35
2022-08-17T19:35:29.652Z,4.63
2022-08-17T19:38:03.468Z,4.63
2022-08-17T19:40:52.330Z,4.20
2022-08-17T19:43:28.472Z,4.80
2022-08-17T19:46:02.699Z,4.80
2022-08-17T19:48:42.591Z,5.07
2022-08-17T19:51:13.706Z,5.20
2022-08-17T19:54:04.815Z,5.30
2022-08-17T19:56:41.356Z,5.30
2022-08-17T19:59:16.101Z,5.20
2022-08-17T20:01:47.726Z,4.97
2022-08-17T20:04:21.587Z,5.05
2022-08-17T20:06:48.915Z,5.37
2022-08-17T20:09:20.941Z,5.10
2022-08-17T20:11:54.103Z,5.28
2022-08-17T20:14:25.683Z,4.60
2022-08-17T20:16:52.548Z,5.00
2022-08-17T20:19:29.078Z,5.17
2022-08-17T20:22:00.782Z,4.90
2022-08-17T20:24:34.836Z,5.15
2022-08-17T20:27:13.137Z,5.60
2022-08-17T20:30:04.507Z,5.60
2022-08-17T20:32:33.877Z,5.72
2022-08-17T20:35:08.446Z,5.60
2022-08-17T20:37:36.024Z,5.05
2022-08-17T20:40:19.105Z,5.00
2022-08-17T20:42:46.183Z,5.47
2022-08-17T20:45:52.564Z,5.13
2022-08-17T20:48:37.427Z,4.67
2022-08-17T20:51:22.323Z,4.80
2022-08-17T20:54:25.330Z,4.80
2022-08-17T20:56:54.929Z,5.10
2022-08-17T20:59:53.694Z,5.15
2022-08-17T21:02:23.707Z,4.63
2022-08-17T21:05:16.872Z,4.77
2022-08-17T21:07:52.953Z,4.57
2022-08-17T21:10:32.409Z,5.00
2022-08-17T21:13:04.186Z,5.13
2022-08-17T21:15:39.263Z,5.13
2022-08-17T21:18:15.244Z,5.53
2022-08-17T21:20:49.146Z,4.80
2022-08-17T21:23:39.834Z,5.13
2022-08-17T21:26:30.763Z,5.22
2022-08-17T21:29:30.290Z,5.43
2022-08-17T21:32:19.206Z,4.97
2022-08-17T21:35:27.760Z,5.10
2022-08-17T21:37:58.500Z,5.05
2022-08-17T21:40:27.769Z,5.28
2022-08-17T21:42:57.223Z,5.68
2022-08-17T21:45:28.876Z,4.85
2022-08-17T21:48:12.194Z,5.20
2022-08-17T21:50:42.258Z,4.90
2022-08-17T21:53:12.733Z,5.13
2022-08-17T21:55:39.492Z,5.35
2022-08-17T21:58:22.007Z,5.28
2022-08-17T22:01:09.661Z,5.53
2022-08-17T22:03:36.308Z,5.63
2022-08-17T22:09:03.436Z,5.10
2022-08-17T22:11:30.290Z,5.68
2022-08-17T22:14:05.452Z,5.18
2022-08-17T22:16:32.596Z,5.28
2022-08-17T22:18:59.442Z,5.40
2022-08-17T22:21:26.470Z,5.30
2022-08-17T22:24:03.235Z,5.57
2022-08-17T22:27:05.411Z,5.40
2022-08-17T22:29:47.255Z,5.25
2022-08-17T22:32:33.738Z,5.47
2022-08-17T22:35:32.596Z,5.17
2022-08-17T22:38:28.127Z,5.87
2022-08-17T22:41:12.424Z,4.95
2022-08-17T22:43:43.094Z,5.68
2022-08-17T22:46:11.856Z,5.60
2022-08-17T22:48:47.538Z,5.45
2022-08-17T22:51:18.645Z,5.83
2022-08-17T22:53:46.883Z,5.63
2022-08-17T22:56:18.479Z,5.57
2022-08-17T22:58:58.964Z,5.82
2022-08-17T23:01:29.433Z,5.50
2022-08-17T23:03:58.291Z,5.07
2022-08-17T23:06:25.090Z,5.50
2022-08-17T23:08:52.764Z,5.80
2022-08-17T23:11:23.335Z,5.50
2022-08-17T23:14:11.043Z,6.03
2022-08-17T23:16:38.839Z,5.82
2022-08-17T23:19:05.405Z,5.80
2022-08-17T23:21:32.107Z,5.70
2022-08-17T23:24:05.157Z,5.83
2022-08-17T23:26:34.166Z,6.13
2022-08-17T23:29:00.719Z,6.03
2022-08-17T23:31:27.279Z,5.72
2022-08-17T23:33:53.896Z,5.57
2022-08-17T23:36:20.467Z,5.37
2022-08-17T23:38:47.032Z,5.20
2022-08-17T23:41:16.768Z,5.80
2022-08-17T23:43:47.725Z,5.95
2022-08-17T23:46:14.369Z,6.05
2022-08-17T23:48:40.909Z,6.40
2022-08-17T23:51:11.631Z,5.87
2022-08-17T23:53:42.146Z,6.20
2022-08-17T23:56:10.250Z,6.47
2022-08-17T23:58:37.227Z,6.20
